Zeus — WDC2598 — position and weather

sailwx.info

Track history (hours):
 
Tides and Currents Weather Stations Pressure Air Temp Water Temp Dewpoint Dewpoint Depression Visibility Wind Speed Wind Dir Waves Ship Positions

Zeus

Owner: Kirby Inland Marine, LP, Houston, TX. More information available from US FCC via Universal Licensing System and Coast Guard Vessel Documentation Center.

Last reported at 2018-Feb-19 16:00 UTC. Time now 2018-Feb-19 16:19 UTC.
Position N 29°38' W 094°19'.

Length 204 m; draft 3 m.

Type: . MMSI: 366995430.

Date/timePositionNaut miles runAvg speedWind from/ knotsBaromVisibWave heightAir tempDewpointWater temp
2018-Feb-19 16:00N 29°38' W 094°19'2 3.2
2018-Feb-19 15:30N 29°38' W 094°18'2 4.8
2018-Feb-19 15:00N 29°39' W 094°15'2 4.6
2018-Feb-19 14:29N 29°41' W 094°13'2 4.0
2018-Feb-19 14:00N 29°41' W 094°11'0 0.9
2018-Feb-19 13:30N 29°41' W 094°10'0 0.2
2018-Feb-19 12:59N 29°41' W 094°10'0 0.0
2018-Feb-19 12:31N 29°41' W 094°10'0 0.0
2018-Feb-19 11:59N 29°41' W 094°10'0 0.0
2018-Feb-19 11:30N 29°41' W 094°10'0 0.0
2018-Feb-19 11:00N 29°41' W 094°10'0 0.0
2018-Feb-19 10:30N 29°41' W 094°10'0 0.0
2018-Feb-19 10:00N 29°41' W 094°10'0 0.0
2018-Feb-19 09:28N 29°41' W 094°10'0 0.0
2018-Feb-19 09:00N 29°41' W 094°10'0 0.0
2018-Feb-19 08:30N 29°41' W 094°10'0 0.0
2018-Feb-19 07:55N 29°41' W 094°10'0 0.0
2018-Feb-19 07:29N 29°41' W 094°10'0 0.0
2018-Feb-19 06:59N 29°41' W 094°10'0 0.0
2018-Feb-19 06:31N 29°41' W 094°10'0 0.0
2018-Feb-19 06:00N 29°41' W 094°10'0 0.0
2018-Feb-19 05:30N 29°41' W 094°10'0 0.0
2018-Feb-19 05:01N 29°41' W 094°10'0 0.0
2018-Feb-19 04:30N 29°41' W 094°10'0 0.0
2018-Feb-19 04:00N 29°41' W 094°10'0 0.0
2018-Feb-19 03:25N 29°41' W 094°10'0 0.0
2018-Feb-19 03:00N 29°41' W 094°10'0 0.0
2018-Feb-19 02:30N 29°41' W 094°10'0 0.0
2018-Feb-19 01:56N 29°41' W 094°10'0 0.0
2018-Feb-19 01:24N 29°41' W 094°10'0 0.0
2018-Feb-19 00:52N 29°41' W 094°10'0 0.0
2018-Feb-19 00:22N 29°41' W 094°10'0 0.0
2018-Feb-18 23:58N 29°41' W 094°10'0 0.1
2018-Feb-18 23:30N 29°41' W 094°10'2 3.5
2018-Feb-18 23:00N 29°42' W 094°08'3 5.3
2018-Feb-18 22:30N 29°44' W 094°06'3 5.2
2018-Feb-18 22:00N 29°46' W 094°04'3 5.2
2018-Feb-18 21:31N 29°47' W 094°01'1 2.8
2018-Feb-18 21:00N 29°48' W 094°00'2 4.2
2018-Feb-18 20:31N 29°49' W 093°58'2 4.2
2018-Feb-18 20:00N 29°51' W 093°57'4 7.2
2018-Feb-18 19:30N 29°54' W 093°54'4 7.9
2018-Feb-18 19:00N 29°57' W 093°52'3 5.3
2018-Feb-18 18:30N 29°59' W 093°49'2 3.3
2018-Feb-18 18:00N 29°59' W 093°47'0 0.2
2018-Feb-18 17:29N 29°59' W 093°47'1 2.0
2018-Feb-18 17:00N 29°60' W 093°46'2 3.7
2018-Feb-18 16:30N 30°01' W 093°45'0 0.1
2018-Feb-18 16:00N 30°01' W 093°45'0 0.8
2018-Feb-18 15:30N 30°01' W 093°44'2 4.9
2018-Feb-18 15:00N 30°03' W 093°43'2 4.3
2018-Feb-18 14:30N 30°04' W 093°40'1 1.6
2018-Feb-18 14:00N 30°03' W 093°39'0 0.0
2018-Feb-18 13:30N 30°03' W 093°39'0 0.0
2018-Feb-18 13:00N 30°03' W 093°39'0 0.1
2018-Feb-18 12:30N 30°04' W 093°39'1 1.6
2018-Feb-18 12:00N 30°04' W 093°38'2 4.9
2018-Feb-18 11:30N 30°04' W 093°36'2 4.3
2018-Feb-18 11:00N 30°04' W 093°33'1 1.3
2018-Feb-18 10:30N 30°04' W 093°32'0 0.1
2018-Feb-18 10:01N 30°04' W 093°32'2 3.2
2018-Feb-18 09:30N 30°04' W 093°30'1 1.1
2018-Feb-18 09:00N 30°04' W 093°30'0 0.2
2018-Feb-18 08:31N 30°04' W 093°30'2 4.1
2018-Feb-18 08:00N 30°04' W 093°27'2 3.8
2018-Feb-18 07:30N 30°04' W 093°25'2 3.8
2018-Feb-18 06:59N 30°04' W 093°23'2 4.0
2018-Feb-18 06:30N 30°04' W 093°21'2 3.8
2018-Feb-18 06:00N 30°06' W 093°19'1 2.8
2018-Feb-18 05:30N 30°05' W 093°18'0 1.0
2018-Feb-18 05:01N 30°05' W 093°17'1 2.2
2018-Feb-18 04:30N 30°04' W 093°16'0 0.3
2018-Feb-18 04:01N 30°04' W 093°16'0 0.0
2018-Feb-18 03:30N 30°04' W 093°16'0 0.0
2018-Feb-18 02:58N 30°04' W 093°16'0 0.0
2018-Feb-18 02:30N 30°04' W 093°16'0 0.0
2018-Feb-18 02:00N 30°04' W 093°16'0 0.0
2018-Feb-18 01:31N 30°04' W 093°16'0 0.1
2018-Feb-18 01:00N 30°04' W 093°16'2 3.8
2018-Feb-18 00:30N 30°02' W 093°15'2 4.2
2018-Feb-18 00:00N 30°01' W 093°14'2 3.5
2018-Feb-17 23:30N 29°59' W 093°13'2 4.1
2018-Feb-17 23:00N 29°58' W 093°11'2 4.6
2018-Feb-17 22:30N 29°56' W 093°09'3 5.0
2018-Feb-17 22:00N 29°56' W 093°06'2 4.5
2018-Feb-17 21:30N 29°56' W 093°04'35 1.9
2018-Feb-17 02:47N 29°53' W 092°23'2 4.2
2018-Feb-17 02:17N 29°51' W 092°22'1 4.2
2018-Feb-17 02:00N 29°51' W 092°20'1 2.1
2018-Feb-17 01:30N 29°50' W 092°19'1 2.9
2018-Feb-17 01:00N 29°50' W 092°18'2 3.4
2018-Feb-17 00:30N 29°49' W 092°16'2 4.3
2018-Feb-17 00:00N 29°48' W 092°14'2 3.9
2018-Feb-16 23:28N 29°47' W 092°12'2 3.5
2018-Feb-16 23:00N 29°47' W 092°10'2 3.9
2018-Feb-16 22:30N 29°47' W 092°08'2 4.0
2018-Feb-16 22:00N 29°48' W 092°06'2 4.6
2018-Feb-16 21:30N 29°49' W 092°03'2 4.6
2018-Feb-16 21:00N 29°49' W 092°01'2 4.0
2018-Feb-16 20:30N 29°50' W 091°59'  
2018-Feb-12 23:16N 32°02' W 091°04'511.7
2018-Feb-12 22:52N 32°07' W 091°06'4 8.9
2018-Feb-12 22:27N 32°07' W 091°02'512.0
2018-Feb-12 22:01N 32°12' W 090°59'612.0
2018-Feb-12 21:30N 32°17' W 090°56'4 7.1
2018-Feb-12 21:00N 32°21' W 090°57'4 8.8
2018-Feb-12 20:30N 32°25' W 090°60'611.7
2018-Feb-12 20:00N 32°27' W 091°06'611.5
2018-Feb-12 19:30N 32°33' W 091°06'  
Track history (hours):
 
Tides and Currents Weather Stations Pressure Air Temp Water Temp Dewpoint Dewpoint Depression Visibility Wind Speed Wind Dir Waves Ship Positions

Zeus

Owner: Kirby Inland Marine, LP, Houston, TX. More information available from US FCC via Universal Licensing System and Coast Guard Vessel Documentation Center.

Last reported at 2018-Feb-19 16:00 UTC. Time now 2018-Feb-19 16:19 UTC.
Position N 29°38' W 094°19'.

Length 204 m; draft 3 m.

Type: . MMSI: 366995430.

Date/timePositionNaut miles runAvg speedWind from/ knotsBaromVisibWave heightAir tempDewpointWater temp
2018-Feb-19 16:00N 29°38' W 094°19'2 3.2
2018-Feb-19 15:30N 29°38' W 094°18'2 4.8
2018-Feb-19 15:00N 29°39' W 094°15'2 4.6
2018-Feb-19 14:29N 29°41' W 094°13'2 4.0
2018-Feb-19 14:00N 29°41' W 094°11'0 0.9
2018-Feb-19 13:30N 29°41' W 094°10'0 0.2
2018-Feb-19 12:59N 29°41' W 094°10'0 0.0
2018-Feb-19 12:31N 29°41' W 094°10'0 0.0
2018-Feb-19 11:59N 29°41' W 094°10'0 0.0
2018-Feb-19 11:30N 29°41' W 094°10'0 0.0
2018-Feb-19 11:00N 29°41' W 094°10'0 0.0
2018-Feb-19 10:30N 29°41' W 094°10'0 0.0
2018-Feb-19 10:00N 29°41' W 094°10'0 0.0
2018-Feb-19 09:28N 29°41' W 094°10'0 0.0
2018-Feb-19 09:00N 29°41' W 094°10'0 0.0
2018-Feb-19 08:30N 29°41' W 094°10'0 0.0
2018-Feb-19 07:55N 29°41' W 094°10'0 0.0
2018-Feb-19 07:29N 29°41' W 094°10'0 0.0
2018-Feb-19 06:59N 29°41' W 094°10'0 0.0
2018-Feb-19 06:31N 29°41' W 094°10'0 0.0
2018-Feb-19 06:00N 29°41' W 094°10'0 0.0
2018-Feb-19 05:30N 29°41' W 094°10'0 0.0
2018-Feb-19 05:01N 29°41' W 094°10'0 0.0
2018-Feb-19 04:30N 29°41' W 094°10'0 0.0
2018-Feb-19 04:00N 29°41' W 094°10'0 0.0
2018-Feb-19 03:25N 29°41' W 094°10'0 0.0
2018-Feb-19 03:00N 29°41' W 094°10'0 0.0
2018-Feb-19 02:30N 29°41' W 094°10'0 0.0
2018-Feb-19 01:56N 29°41' W 094°10'0 0.0
2018-Feb-19 01:24N 29°41' W 094°10'0 0.0
2018-Feb-19 00:52N 29°41' W 094°10'0 0.0
2018-Feb-19 00:22N 29°41' W 094°10'0 0.0
2018-Feb-18 23:58N 29°41' W 094°10'0 0.1
2018-Feb-18 23:30N 29°41' W 094°10'2 3.5
2018-Feb-18 23:00N 29°42' W 094°08'3 5.3
2018-Feb-18 22:30N 29°44' W 094°06'3 5.2
2018-Feb-18 22:00N 29°46' W 094°04'3 5.2
2018-Feb-18 21:31N 29°47' W 094°01'1 2.8
2018-Feb-18 21:00N 29°48' W 094°00'2 4.2
2018-Feb-18 20:31N 29°49' W 093°58'2 4.2
2018-Feb-18 20:00N 29°51' W 093°57'4 7.2
2018-Feb-18 19:30N 29°54' W 093°54'4 7.9
2018-Feb-18 19:00N 29°57' W 093°52'3 5.3
2018-Feb-18 18:30N 29°59' W 093°49'2 3.3
2018-Feb-18 18:00N 29°59' W 093°47'0 0.2
2018-Feb-18 17:29N 29°59' W 093°47'1 2.0
2018-Feb-18 17:00N 29°60' W 093°46'2 3.7
2018-Feb-18 16:30N 30°01' W 093°45'0 0.1
2018-Feb-18 16:00N 30°01' W 093°45'0 0.8
2018-Feb-18 15:30N 30°01' W 093°44'2 4.9
2018-Feb-18 15:00N 30°03' W 093°43'2 4.3
2018-Feb-18 14:30N 30°04' W 093°40'1 1.6
2018-Feb-18 14:00N 30°03' W 093°39'0 0.0
2018-Feb-18 13:30N 30°03' W 093°39'0 0.0
2018-Feb-18 13:00N 30°03' W 093°39'0 0.1
2018-Feb-18 12:30N 30°04' W 093°39'1 1.6
2018-Feb-18 12:00N 30°04' W 093°38'2 4.9
2018-Feb-18 11:30N 30°04' W 093°36'2 4.3
2018-Feb-18 11:00N 30°04' W 093°33'1 1.3
2018-Feb-18 10:30N 30°04' W 093°32'0 0.1
2018-Feb-18 10:01N 30°04' W 093°32'2 3.2
2018-Feb-18 09:30N 30°04' W 093°30'1 1.1
2018-Feb-18 09:00N 30°04' W 093°30'0 0.2
2018-Feb-18 08:31N 30°04' W 093°30'2 4.1
2018-Feb-18 08:00N 30°04' W 093°27'2 3.8
2018-Feb-18 07:30N 30°04' W 093°25'2 3.8
2018-Feb-18 06:59N 30°04' W 093°23'2 4.0
2018-Feb-18 06:30N 30°04' W 093°21'2 3.8
2018-Feb-18 06:00N 30°06' W 093°19'1 2.8
2018-Feb-18 05:30N 30°05' W 093°18'0 1.0
2018-Feb-18 05:01N 30°05' W 093°17'1 2.2
2018-Feb-18 04:30N 30°04' W 093°16'0 0.3
2018-Feb-18 04:01N 30°04' W 093°16'0 0.0
2018-Feb-18 03:30N 30°04' W 093°16'0 0.0
2018-Feb-18 02:58N 30°04' W 093°16'0 0.0
2018-Feb-18 02:30N 30°04' W 093°16'0 0.0
2018-Feb-18 02:00N 30°04' W 093°16'0 0.0
2018-Feb-18 01:31N 30°04' W 093°16'0 0.1
2018-Feb-18 01:00N 30°04' W 093°16'2 3.8
2018-Feb-18 00:30N 30°02' W 093°15'2 4.2
2018-Feb-18 00:00N 30°01' W 093°14'2 3.5
2018-Feb-17 23:30N 29°59' W 093°13'2 4.1
2018-Feb-17 23:00N 29°58' W 093°11'2 4.6
2018-Feb-17 22:30N 29°56' W 093°09'3 5.0
2018-Feb-17 22:00N 29°56' W 093°06'2 4.5
2018-Feb-17 21:30N 29°56' W 093°04'35 1.9
2018-Feb-17 02:47N 29°53' W 092°23'2 4.2
2018-Feb-17 02:17N 29°51' W 092°22'1 4.2
2018-Feb-17 02:00N 29°51' W 092°20'1 2.1
2018-Feb-17 01:30N 29°50' W 092°19'1 2.9
2018-Feb-17 01:00N 29°50' W 092°18'2 3.4
2018-Feb-17 00:30N 29°49' W 092°16'2 4.3
2018-Feb-17 00:00N 29°48' W 092°14'2 3.9
2018-Feb-16 23:28N 29°47' W 092°12'2 3.5
2018-Feb-16 23:00N 29°47' W 092°10'2 3.9
2018-Feb-16 22:30N 29°47' W 092°08'2 4.0
2018-Feb-16 22:00N 29°48' W 092°06'2 4.6
2018-Feb-16 21:30N 29°49' W 092°03'2 4.6
2018-Feb-16 21:00N 29°49' W 092°01'2 4.0
2018-Feb-16 20:30N 29°50' W 091°59'  
2018-Feb-12 23:16N 32°02' W 091°04'511.7
2018-Feb-12 22:52N 32°07' W 091°06'4 8.9
2018-Feb-12 22:27N 32°07' W 091°02'512.0
2018-Feb-12 22:01N 32°12' W 090°59'612.0
2018-Feb-12 21:30N 32°17' W 090°56'4 7.1
2018-Feb-12 21:00N 32°21' W 090°57'4 8.8
2018-Feb-12 20:30N 32°25' W 090°60'611.7
2018-Feb-12 20:00N 32°27' W 091°06'611.5
2018-Feb-12 19:30N 32°33' W 091°06'  

Dump ship's entire track history